Time;durP1;ratioP1;P1;durP2;ratioP2;P2;SDS_P1;SDS_P2;PMS_P1;PMS_P2;Temp;Humidity;BMP_temperature;BMP_pressure;BME280_temperature;BME280_humidity;BME280_pressure;Samples;Min_cycle;Max_cycle;Signal;HPM_P1;HPM_P2
2021/09/13 00:01:33;;;;;;;;;15.00;13.33;;;;;22.05;53.81;98461.00;4896229;28;103569;-82
2021/09/13 00:04:01;;;;;;;;;14.67;13.33;;;;;22.03;53.50;98460.44;4871133;28;104145;-82
2021/09/13 00:06:28;;;;;;;;;10.67;9.67;;;;;22.03;53.95;98465.94;4864170;28;105231;-82
2021/09/13 00:08:55;;;;;;;;;11.00;11.00;;;;;22.05;53.32;98464.59;4851489;28;104181;-82
2021/09/13 00:11:22;;;;;;;;;15.00;14.33;;;;;22.04;53.61;98464.84;4868971;28;102643;-82
2021/09/13 00:13:50;;;;;;;;;14.67;13.00;;;;;22.02;54.21;98458.81;4888209;28;104052;-82
2021/09/13 00:16:17;;;;;;;;;14.00;13.00;;;;;22.00;53.59;98452.75;4886209;28;105147;-82
2021/09/13 00:18:45;;;;;;;;;15.33;13.00;;;;;22.00;53.59;98459.09;4879470;28;107035;-82
2021/09/13 00:21:12;;;;;;;;;13.67;12.33;;;;;21.98;54.13;98455.78;4879404;28;105489;-82
2021/09/13 00:23:39;;;;;;;;;13.67;13.00;;;;;21.97;53.21;98459.66;4889014;28;104251;-82
2021/09/13 00:26:07;;;;;;;;;13.00;12.33;;;;;22.01;53.88;98458.00;4884167;28;103256;-82
2021/09/13 00:28:34;;;;;;;;;13.33;12.33;;;;;22.01;53.59;98459.91;4880679;28;103720;-82
2021/09/13 00:31:01;;;;;;;;;15.00;13.67;;;;;21.99;53.21;98451.94;4887642;28;102319;-82
2021/09/13 00:33:28;;;;;;;;;17.33;14.67;;;;;22.00;53.50;98448.06;4881365;28;104471;-82
2021/09/13 00:35:56;;;;;;;;;16.00;16.00;;;;;22.00;53.63;98459.09;4888338;28;103270;-82
2021/09/13 00:38:23;;;;;;;;;16.67;15.00;;;;;21.97;53.48;98456.06;4881165;28;102534;-82
2021/09/13 00:40:50;;;;;;;;;17.67;15.67;;;;;21.94;53.61;98454.69;4895356;28;102508;-82
2021/09/13 00:43:17;;;;;;;;;15.33;14.00;;;;;21.96;53.36;98452.50;4878788;28;108717;-82
2021/09/13 00:45:44;;;;;;;;;13.00;12.00;;;;;21.95;53.24;98452.75;4874084;28;102683;-82
2021/09/13 00:48:11;;;;;;;;;15.00;14.33;;;;;21.96;53.54;98451.66;4888426;28;102594;-82
2021/09/13 00:50:38;;;;;;;;;16.00;14.33;;;;;21.92;53.20;98451.38;4894168;28;102462;-82
2021/09/13 00:53:05;;;;;;;;;18.33;14.67;;;;;21.93;53.45;98453.03;4878008;28;104208;-82
2021/09/13 00:55:55;;;;;;;;;12.00;12.00;;;;;21.93;53.53;98444.75;4883136;28;105660;-82
2021/09/13 00:58:26;;;;;;;;;14.00;14.00;;;;;21.95;53.46;98453.59;4881472;28;103578;-82
2021/09/13 01:00:54;;;;;;;;;15.33;15.00;;;;;21.92;53.50;98456.88;4849347;28;102649;-82
2021/09/13 01:03:21;;;;;;;;;19.33;13.67;;;;;21.93;53.27;98458.53;4888853;28;104159;-82
2021/09/13 01:05:49;;;;;;;;;15.33;14.00;;;;;21.92;53.40;98454.13;4867311;28;102553;-82
2021/09/13 01:08:16;;;;;;;;;12.00;12.00;;;;;21.93;53.45;98454.97;4867965;28;102474;-82
2021/09/13 01:10:43;;;;;;;;;15.33;13.33;;;;;21.93;53.34;98446.72;4841445;28;108775;-82
2021/09/13 01:13:10;;;;;;;;;15.67;14.67;;;;;21.92;53.15;98445.88;4872233;28;104280;-82
2021/09/13 01:15:40;;;;;;;;;15.33;14.00;;;;;21.90;53.17;98439.78;4863960;28;102584;-82
2021/09/13 01:18:08;;;;;;;;;15.33;14.33;;;;;21.93;53.05;98449.47;4867865;28;102563;-82
2021/09/13 01:20:35;;;;;;;;;18.00;16.33;;;;;21.92;52.83;98445.88;4885334;28;103041;-82
2021/09/13 01:23:16;;;;;;;;;15.67;14.00;;;;;21.94;53.11;98449.19;4862420;28;104216;-82
2021/09/13 01:25:44;;;;;;;;;16.33;13.67;;;;;21.93;53.31;98442.00;4876210;28;104327;-82
2021/09/13 01:28:11;;;;;;;;;13.00;13.00;;;;;21.93;53.08;98436.50;4869205;28;102760;-82
2021/09/13 01:30:38;;;;;;;;;14.67;13.67;;;;;21.91;53.18;98437.88;4889132;28;102614;-82
2021/09/13 01:33:05;;;;;;;;;16.33;15.33;;;;;21.90;53.05;98436.22;4894085;28;104193;-82
2021/09/13 01:35:33;;;;;;;;;15.00;14.00;;;;;21.88;53.04;98439.25;4879232;28;102743;-82
2021/09/13 01:38:00;;;;;;;;;13.67;13.00;;;;;21.91;52.91;98437.88;4888699;28;103349;-82
2021/09/13 01:40:27;;;;;;;;;13.33;12.67;;;;;21.90;53.39;98434.28;4886177;28;104146;-82
2021/09/13 01:42:58;;;;;;;;;13.67;13.00;;;;;21.89;53.16;98427.13;4882871;28;104234;-82
2021/09/13 01:45:26;;;;;;;;;17.67;15.33;;;;;21.91;52.98;98424.94;4888279;28;102591;-82
2021/09/13 01:47:53;;;;;;;;;15.00;14.33;;;;;21.89;53.33;98418.88;4899189;28;102448;-82
2021/09/13 01:50:20;;;;;;;;;14.67;13.67;;;;;21.89;53.27;98421.63;4893848;28;102474;-82
2021/09/13 01:52:48;;;;;;;;;17.67;16.33;;;;;21.90;53.17;98431.53;4884046;28;104120;-82
2021/09/13 01:55:15;;;;;;;;;14.00;13.33;;;;;21.92;53.04;98431.28;4899459;28;102766;-82
2021/09/13 01:57:42;;;;;;;;;14.67;13.33;;;;;21.91;52.81;98432.38;4871692;28;106030;-82
2021/09/13 02:00:10;;;;;;;;;14.00;13.00;;;;;21.91;52.93;98435.13;4894787;28;102528;-82
2021/09/13 02:02:37;;;;;;;;;15.67;14.00;;;;;21.89;52.98;98435.38;4900481;28;104139;-82
2021/09/13 02:05:05;;;;;;;;;16.00;14.00;;;;;21.89;52.98;98429.88;4886665;28;104314;-82
2021/09/13 02:07:32;;;;;;;;;16.33;15.67;;;;;21.89;52.58;98434.56;4891691;28;102350;-82
2021/09/13 02:09:59;;;;;;;;;17.00;14.67;;;;;21.90;52.92;98438.97;4891830;28;102383;-82
2021/09/13 02:12:26;;;;;;;;;17.00;16.00;;;;;21.88;53.24;98443.94;4887627;28;104040;-82
2021/09/13 02:14:53;;;;;;;;;18.00;16.67;;;;;21.88;52.70;98432.94;4890733;28;102491;-82
2021/09/13 02:17:20;;;;;;;;;19.00;16.00;;;;;21.86;52.96;98446.97;4896792;28;102442;-82
2021/09/13 02:19:48;;;;;;;;;16.00;16.00;;;;;21.86;53.06;98440.63;4887286;28;104075;-82
2021/09/13 02:22:16;;;;;;;;;15.67;13.33;;;;;21.84;52.56;98448.34;4878674;28;104043;-82
2021/09/13 02:24:43;;;;;;;;;14.67;13.33;;;;;21.84;52.79;98446.41;4890697;28;102507;-82
2021/09/13 02:27:10;;;;;;;;;16.00;15.00;;;;;21.84;52.70;98449.16;4873052;28;102695;-82
2021/09/13 02:29:37;;;;;;;;;14.67;14.00;;;;;21.85;52.73;98450.81;4890341;28;103835;-82
2021/09/13 02:32:04;;;;;;;;;18.00;15.00;;;;;21.85;52.68;98444.47;4887702;28;104142;-82
2021/09/13 02:34:31;;;;;;;;;15.00;15.00;;;;;21.84;52.33;98448.34;4891957;28;102975;-82
2021/09/13 02:36:59;;;;;;;;;13.67;12.33;;;;;21.81;52.36;98452.47;4893606;28;112432;-82
2021/09/13 02:39:26;;;;;;;;;15.00;14.33;;;;;21.81;52.55;98441.47;4894716;28;102892;-82
2021/09/13 02:41:53;;;;;;;;;16.00;15.00;;;;;21.81;52.23;98447.78;4881195;28;103922;-82
2021/09/13 02:44:20;;;;;;;;;18.33;16.67;;;;;21.82;52.45;98448.63;4889185;28;103255;-82
2021/09/13 02:46:47;;;;;;;;;16.67;16.67;;;;;21.82;52.64;98454.13;4885466;28;102746;-82
2021/09/13 02:49:14;;;;;;;;;13.00;13.00;;;;;21.81;52.73;98455.22;4883206;28;105857;-82
2021/09/13 02:51:41;;;;;;;;;15.33;14.00;;;;;21.81;52.48;98449.72;4877765;28;104085;-82
2021/09/13 02:54:08;;;;;;;;;15.00;14.00;;;;;21.84;52.21;98445.59;4883525;28;102798;-82
2021/09/13 02:56:35;;;;;;;;;13.33;11.67;;;;;21.82;52.14;98440.38;4891299;28;102129;-82
2021/09/13 02:59:02;;;;;;;;;21.67;18.33;;;;;21.81;52.00;98449.72;4892499;28;103976;-82
2021/09/13 03:01:29;;;;;;;;;19.33;17.67;;;;;21.79;52.33;98452.75;4890718;28;113377;-82
2021/09/13 03:03:57;;;;;;;;;20.00;18.00;;;;;21.78;52.22;98456.63;4885997;28;102467;-82
2021/09/13 03:06:24;;;;;;;;;16.67;15.33;;;;;21.75;52.37;98456.31;4886568;28;102807;-82
2021/09/13 03:08:51;;;;;;;;;17.00;15.00;;;;;21.74;51.93;98452.78;4887492;28;102538;-82
2021/09/13 03:11:18;;;;;;;;;17.67;15.00;;;;;21.74;52.34;98450.03;4890785;28;104071;-82
2021/09/13 03:13:45;;;;;;;;;15.33;13.33;;;;;21.74;52.27;98455.53;4884233;28;105595;-82
2021/09/13 03:16:12;;;;;;;;;15.00;14.00;;;;;21.75;52.15;98462.66;4869719;28;103767;-82
2021/09/13 03:18:40;;;;;;;;;18.67;17.00;;;;;21.76;52.13;98449.72;4901857;28;102541;-82
2021/09/13 03:21:07;;;;;;;;;17.33;16.67;;;;;21.75;52.10;98454.41;4878471;28;104177;-82
2021/09/13 03:23:34;;;;;;;;;15.00;14.33;;;;;21.74;51.89;98457.44;4894813;28;102425;-82
2021/09/13 03:26:01;;;;;;;;;18.00;15.67;;;;;21.73;52.14;98459.38;4892163;28;102196;-82
2021/09/13 03:28:29;;;;;;;;;16.67;15.00;;;;;21.72;52.31;98454.13;4889564;28;102598;-82
2021/09/13 03:30:56;;;;;;;;;15.67;14.00;;;;;21.73;51.84;98456.63;4892003;28;103897;-82
2021/09/13 03:33:23;;;;;;;;;15.67;14.33;;;;;21.73;52.06;98458.53;4902792;28;103630;-82
2021/09/13 03:35:50;;;;;;;;;16.33;16.00;;;;;21.73;52.12;98461.28;4887133;28;104222;-82
2021/09/13 03:38:17;;;;;;;;;16.00;14.67;;;;;21.72;51.92;98467.91;4889435;28;102683;-82
2021/09/13 03:40:44;;;;;;;;;14.67;14.33;;;;;21.70;51.77;98465.41;4873172;28;104094;-82
2021/09/13 03:43:11;;;;;;;;;16.00;13.00;;;;;21.69;52.12;98463.78;4888644;28;102592;-82
2021/09/13 03:45:39;;;;;;;;;14.00;13.33;;;;;21.68;51.98;98462.13;4893133;28;102474;-82
2021/09/13 03:48:06;;;;;;;;;15.67;14.33;;;;;21.70;51.75;98464.59;4896671;28;102496;-82
2021/09/13 03:50:33;;;;;;;;;16.67;15.00;;;;;21.68;51.89;98458.53;4874924;28;104055;-82
2021/09/13 03:53:00;;;;;;;;;15.67;14.00;;;;;21.68;51.67;98451.13;4885778;28;102615;-82
2021/09/13 03:55:27;;;;;;;;;18.33;17.33;;;;;21.71;51.53;98460.72;4876246;28;103608;-82
2021/09/13 03:57:54;;;;;;;;;18.00;16.00;;;;;21.69;51.97;98461.03;4897276;28;103484;-82
2021/09/13 04:00:21;;;;;;;;;15.33;14.33;;;;;21.67;51.66;98467.88;4893745;28;108948;-82
2021/09/13 04:02:49;;;;;;;;;16.00;15.00;;;;;21.65;51.66;98468.19;4894455;28;103137;-82
2021/09/13 04:05:21;;;;;;;;;16.67;15.67;;;;;21.62;52.13;98463.22;4891539;28;103149;-82
2021/09/13 04:10:27;;;;;;;;;19.00;17.33;;;;;21.63;51.62;98461.28;4872756;28;109174;-82
2021/09/13 04:12:54;;;;;;;;;16.00;15.33;;;;;21.60;52.03;98464.59;4885386;28;104731;-82
2021/09/13 04:15:21;;;;;;;;;16.67;14.67;;;;;21.59;51.72;98468.44;4899402;28;103791;-82
2021/09/13 04:17:49;;;;;;;;;17.00;16.67;;;;;21.59;51.90;98462.94;4881284;28;102727;-82
2021/09/13 04:20:16;;;;;;;;;17.00;17.00;;;;;21.61;51.67;98460.75;4892249;28;104015;-82
2021/09/13 04:22:43;;;;;;;;;19.33;17.33;;;;;21.62;51.59;98462.38;4889787;28;103668;-82
2021/09/13 04:25:11;;;;;;;;;16.00;14.33;;;;;21.63;51.09;98467.63;4891514;28;102458;-80
2021/09/13 04:27:38;;;;;;;;;16.00;16.00;;;;;21.67;51.69;98470.66;4882919;28;103801;-83
2021/09/13 04:30:06;;;;;;;;;18.33;17.67;;;;;21.68;51.16;98472.31;4887502;28;104094;-82
2021/09/13 04:32:33;;;;;;;;;18.00;16.33;;;;;21.68;51.45;98466.78;4886848;28;104304;-84
2021/09/13 04:35:00;;;;;;;;;15.00;14.67;;;;;21.63;51.71;98473.13;4878973;28;103413;-84
2021/09/13 04:37:28;;;;;;;;;14.33;14.00;;;;;21.60;51.47;98472.88;4879950;28;102899;-84
2021/09/13 04:39:55;;;;;;;;;16.67;16.00;;;;;21.58;51.74;98472.28;4876039;28;103894;-84
2021/09/13 04:42:25;;;;;;;;;15.33;14.67;;;;;21.57;51.68;98470.66;4892407;28;102736;-84
2021/09/13 04:44:52;;;;;;;;;18.00;16.67;;;;;21.58;51.66;98472.28;4882847;28;102605;-84
2021/09/13 04:47:19;;;;;;;;;22.33;18.67;;;;;21.57;51.54;98470.66;4894090;28;103078;-84
2021/09/13 04:49:46;;;;;;;;;17.67;16.00;;;;;21.58;51.38;98477.81;4876533;28;103821;-84
2021/09/13 04:52:13;;;;;;;;;17.00;17.00;;;;;21.58;51.77;98477.81;4876721;28;102692;-84
2021/09/13 04:54:40;;;;;;;;;17.00;15.67;;;;;21.59;51.61;98479.47;4864376;28;102497;-84
2021/09/13 04:57:07;;;;;;;;;16.33;15.00;;;;;21.58;51.46;98472.28;4886038;28;102243;-84
2021/09/13 04:59:34;;;;;;;;;20.00;18.00;;;;;21.59;51.45;98479.47;4867638;28;103918;-84
2021/09/13 05:02:01;;;;;;;;;16.67;16.33;;;;;21.59;51.76;98480.28;4878114;28;103339;-84
2021/09/13 05:04:28;;;;;;;;;20.67;17.67;;;;;21.62;51.18;98478.91;4887180;28;102673;-84
2021/09/13 05:06:56;;;;;;;;;18.00;17.00;;;;;21.62;51.41;98479.72;4882879;28;103490;-84
2021/09/13 05:09:23;;;;;;;;;21.00;19.00;;;;;21.63;51.81;98486.88;4866283;28;104402;-84
2021/09/13 05:11:51;;;;;;;;;16.33;16.00;;;;;21.62;51.67;98484.41;4888532;28;102406;-84
2021/09/13 05:14:18;;;;;;;;;17.33;16.00;;;;;21.63;51.67;98477.81;4895357;28;102386;-83
2021/09/13 05:16:45;;;;;;;;;15.00;14.67;;;;;21.61;51.53;98477.28;4890274;28;102235;-83
2021/09/13 05:19:13;;;;;;;;;15.67;14.67;;;;;21.59;51.65;98477.53;4889595;28;104415;-83
2021/09/13 05:21:40;;;;;;;;;17.67;16.67;;;;;21.59;51.82;98474.78;4882402;28;102396;-83
2021/09/13 05:24:07;;;;;;;;;19.00;18.67;;;;;21.57;51.51;98485.22;4898471;28;102603;-83
2021/09/13 05:26:34;;;;;;;;;19.00;17.33;;;;;21.57;51.60;98476.97;4884205;28;102389;-83
2021/09/13 05:29:02;;;;;;;;;20.00;18.00;;;;;21.57;51.25;98482.47;4895702;28;104070;-83
2021/09/13 05:31:29;;;;;;;;;17.00;15.33;;;;;21.57;51.23;98481.69;4899351;28;102484;-83
2021/09/13 05:33:57;;;;;;;;;20.00;18.33;;;;;21.57;51.60;98485.22;4878524;28;102801;-84
2021/09/13 05:36:24;;;;;;;;;19.67;17.67;;;;;21.58;51.75;98486.06;4893836;28;102591;-83
2021/09/13 05:38:51;;;;;;;;;17.33;15.67;;;;;21.57;51.62;98500.94;4888128;28;104199;-83
2021/09/13 05:41:18;;;;;;;;;19.33;18.00;;;;;21.55;51.57;98495.69;4887134;28;102563;-83
2021/09/13 05:43:45;;;;;;;;;18.67;18.00;;;;;21.57;51.32;98503.69;4892855;28;102529;-84
2021/09/13 05:46:12;;;;;;;;;18.00;16.67;;;;;21.57;51.43;98507.25;4897552;28;102586;-83
2021/09/13 05:48:39;;;;;;;;;18.00;17.00;;;;;21.58;51.13;98510.81;4892790;28;104184;-83
2021/09/13 05:51:06;;;;;;;;;20.00;18.00;;;;;21.57;51.39;98514.69;4884788;28;102327;-84
2021/09/13 05:53:33;;;;;;;;;20.00;17.00;;;;;21.56;51.52;98516.63;4899932;28;103145;-84
2021/09/13 05:56:00;;;;;;;;;17.00;16.33;;;;;21.54;51.39;98505.03;4882689;28;102427;-84
2021/09/13 05:58:27;;;;;;;;;16.67;15.67;;;;;21.55;51.38;98512.22;4903478;28;104293;-84
2021/09/13 06:00:54;;;;;;;;;16.00;14.33;;;;;21.56;51.31;98513.03;4891198;28;102692;-83
2021/09/13 06:03:22;;;;;;;;;21.00;19.00;;;;;21.54;51.37;98513.31;4899198;28;102632;-84
2021/09/13 06:05:49;;;;;;;;;17.33;15.33;;;;;21.51;51.56;98513.03;4902040;28;105923;-84
2021/09/13 06:08:16;;;;;;;;;17.67;17.00;;;;;21.51;51.44;98511.09;4883534;28;104139;-84
2021/09/13 06:10:43;;;;;;;;;18.33;16.00;;;;;21.52;51.53;98512.75;4864663;28;102700;-84
2021/09/13 06:13:12;;;;;;;;;16.33;15.67;;;;;21.49;51.65;98507.78;4887288;28;102337;-84
2021/09/13 06:15:39;;;;;;;;;18.00;17.67;;;;;21.50;52.20;98509.44;4877546;28;103344;-84
2021/09/13 06:18:07;;;;;;;;;15.00;14.33;;;;;21.51;52.42;98519.38;4887389;28;103841;-84
2021/09/13 06:20:34;;;;;;;;;17.00;16.00;;;;;21.51;52.60;98515.78;4892577;28;102572;-84
2021/09/13 06:23:01;;;;;;;;;11.33;11.33;;;;;21.50;52.30;98519.63;4868224;28;102170;-84
2021/09/13 06:25:28;;;;;;;;;17.67;15.33;;;;;21.52;52.62;98518.28;4886833;28;103325;-84
2021/09/13 06:27:55;;;;;;;;;14.33;14.33;;;;;21.52;52.89;98522.94;4888825;28;108765;-84
2021/09/13 06:30:22;;;;;;;;;20.00;16.33;;;;;21.54;53.12;98516.06;4875039;28;102623;-84
2021/09/13 06:32:49;;;;;;;;;13.33;12.33;;;;;21.57;52.82;98522.94;4878927;28;102235;-82
2021/09/13 06:35:16;;;;;;;;;18.00;14.00;;;;;21.58;53.13;98525.41;4886905;28;102757;-83
2021/09/13 06:37:43;;;;;;;;;16.00;16.00;;;;;21.58;52.77;98524.56;4867104;28;103785;-83
2021/09/13 06:40:10;;;;;;;;;18.33;17.00;;;;;21.56;52.67;98521.28;4883609;28;105645;-84
2021/09/13 06:42:38;;;;;;;;;15.67;13.67;;;;;21.56;52.77;98524.03;4889631;28;102453;-83
2021/09/13 06:45:10;;;;;;;;;16.00;15.33;;;;;21.56;53.18;98516.63;4886081;28;102756;-83
2021/09/13 06:47:46;;;;;;;;;15.00;15.00;;;;;21.55;53.07;98517.72;4881176;28;104177;-83
2021/09/13 06:50:26;;;;;;;;;16.00;14.00;;;;;21.56;53.39;98526.78;4884106;28;103166;-83
2021/09/13 06:52:54;;;;;;;;;15.00;14.00;;;;;21.57;52.98;98531.22;4880779;28;102615;-84
2021/09/13 06:55:21;;;;;;;;;17.67;13.67;;;;;21.59;52.90;98529.00;4886655;28;106292;-83
2021/09/13 06:57:49;;;;;;;;;16.00;15.00;;;;;21.61;52.93;98532.31;4882616;28;104563;-84
2021/09/13 07:00:18;;;;;;;;;14.00;13.33;;;;;21.60;53.19;98533.41;4865326;28;102567;-84
2021/09/13 07:02:45;;;;;;;;;14.00;14.00;;;;;21.58;53.02;98530.09;4884372;28;102423;-83
2021/09/13 07:05:13;;;;;;;;;14.67;14.00;;;;;21.58;52.96;98530.09;4889335;28;102631;-83
2021/09/13 07:07:41;;;;;;;;;15.33;15.33;;;;;21.59;53.22;98537.25;4874622;28;104213;-84
2021/09/13 07:10:09;;;;;;;;;15.00;15.00;;;;;21.58;53.65;98535.59;4894599;28;102494;-83
2021/09/13 07:12:37;;;;;;;;;14.67;13.33;;;;;21.61;53.19;98537.81;4876382;28;104531;-84
2021/09/13 07:15:05;;;;;;;;;16.00;15.67;;;;;21.63;53.35;98528.16;4887614;28;102504;-83
2021/09/13 07:17:32;;;;;;;;;14.33;12.67;;;;;21.65;53.24;98538.91;4897147;28;104052;-84
2021/09/13 07:19:59;;;;;;;;;15.00;15.00;;;;;21.63;53.43;98543.84;4889504;28;102159;-84
2021/09/13 07:22:26;;;;;;;;;9.00;8.00;;;;;21.64;53.33;98534.50;4882432;28;102116;-83
2021/09/13 07:24:53;;;;;;;;;13.67;13.00;;;;;21.62;53.22;98540.25;4887421;28;102208;-84
2021/09/13 07:27:20;;;;;;;;;18.00;16.00;;;;;21.61;53.94;98532.31;4884592;28;104254;-83
2021/09/13 07:29:47;;;;;;;;;15.33;14.33;;;;;21.66;53.54;98543.28;4893649;28;102634;-83
2021/09/13 07:32:14;;;;;;;;;14.00;13.67;;;;;;;;4895624;28;102436;-83
2021/09/13 07:34:41;;;;;;;;;11.67;11.00;;;;;21.67;53.71;98550.44;4885567;28;104092;-84
2021/09/13 07:37:08;;;;;;;;;13.33;12.67;;;;;;;;4882633;28;107028;-84
2021/09/13 07:39:35;;;;;;;;;18.67;17.67;;;;;21.69;54.20;98551.84;4892452;28;102644;-83
2021/09/13 07:42:02;;;;;;;;;15.67;15.33;;;;;21.70;54.10;98552.69;4892365;28;102578;-83
2021/09/13 07:44:30;;;;;;;;;15.00;14.00;;;;;21.70;54.15;98556.22;4885149;28;103507;-84
2021/09/13 07:46:57;;;;;;;;;17.33;15.67;;;;;21.70;54.06;98560.94;4888016;28;109223;-84
2021/09/13 07:49:24;;;;;;;;;13.67;13.67;;;;;21.72;54.15;98561.47;4884078;28;102509;-84
2021/09/13 07:51:52;;;;;;;;;15.00;14.00;;;;;21.71;54.51;98560.63;4882705;28;102591;-84
2021/09/13 07:54:19;;;;;;;;;14.67;13.67;;;;;21.72;54.29;98567.81;4888802;28;102948;-84
2021/09/13 07:56:46;;;;;;;;;15.67;15.00;;;;;21.73;54.45;98563.13;4883801;28;104075;-84
2021/09/13 07:59:14;;;;;;;;;13.67;12.33;;;;;21.77;54.43;98570.56;4892628;28;102238;-84
2021/09/13 08:01:41;;;;;;;;;14.33;13.33;;;;;21.78;54.27;98563.13;4885454;28;102209;-84
2021/09/13 08:04:11;;;;;;;;;15.00;12.67;;;;;21.78;54.59;98568.66;4881979;28;102724;-84
2021/09/13 08:06:40;;;;;;;;;14.67;14.67;;;;;21.79;54.30;98576.59;4889811;28;104171;-83
2021/09/13 08:09:08;;;;;;;;;15.00;13.00;;;;;21.79;54.62;98578.56;4898836;28;102523;-83
2021/09/13 08:11:36;;;;;;;;;16.33;15.33;;;;;21.81;54.72;98566.16;4872301;28;102209;-84
2021/09/13 08:14:03;;;;;;;;;14.33;13.67;;;;;21.83;54.60;98576.91;4890396;28;102248;-83
2021/09/13 08:16:32;;;;;;;;;16.33;13.00;;;;;21.84;54.95;98575.78;4889147;28;104513;-83
2021/09/13 08:19:00;;;;;;;;;15.67;15.67;;;;;21.86;54.49;98573.59;4891610;28;110021;-84
2021/09/13 08:21:28;;;;;;;;;15.33;14.00;;;;;21.89;54.83;98577.72;4888095;28;104062;-83
2021/09/13 08:23:56;;;;;;;;;14.00;13.00;;;;;21.87;54.59;98582.69;4896782;28;102686;-84
2021/09/13 08:26:23;;;;;;;;;13.00;12.33;;;;;21.85;54.78;98587.63;4889489;28;104168;-84
2021/09/13 08:28:50;;;;;;;;;13.33;13.00;;;;;21.83;54.92;98581.59;4895794;28;103156;-84
2021/09/13 08:31:17;;;;;;;;;14.00;13.00;;;;;21.83;54.85;98574.16;4890419;28;103723;-83
2021/09/13 08:33:44;;;;;;;;;13.33;12.00;;;;;21.83;54.69;98582.41;4895224;28;102607;-84
2021/09/13 08:36:11;;;;;;;;;13.00;13.00;;;;;21.85;54.85;98576.63;4901794;28;103643;-84
2021/09/13 08:38:41;;;;;;;;;15.33;14.00;;;;;21.86;54.98;98578.28;4886564;28;102548;-83
2021/09/13 08:41:08;;;;;;;;;13.00;12.00;;;;;21.86;54.49;98583.78;4885008;28;102401;-84
2021/09/13 08:43:35;;;;;;;;;14.33;12.67;;;;;21.86;54.95;98583.78;4902626;28;102540;-84
2021/09/13 08:46:07;;;;;;;;;13.00;12.00;;;;;21.85;54.92;98577.44;4867880;28;104111;-84
2021/09/13 08:48:47;;;;;;;;;14.67;14.00;;;;;21.87;54.72;98586.25;4886685;28;102473;-84
2021/09/13 08:53:52;;;;;;;;;15.00;13.33;;;;;21.88;54.98;98582.41;4894079;28;102581;-83
2021/09/13 08:56:24;;;;;;;;;14.00;13.33;;;;;21.90;54.62;98582.13;4895098;28;104088;-84
2021/09/13 08:58:51;;;;;;;;;14.00;13.00;;;;;21.89;54.97;98578.53;4890285;28;102673;-83
2021/09/13 09:01:18;;;;;;;;;14.00;11.67;;;;;21.91;54.94;98576.34;4878924;28;102179;-83
2021/09/13 09:03:47;;;;;;;;;10.00;10.00;;;;;21.92;54.69;98575.25;4892221;28;102234;-84
2021/09/13 09:06:36;;;;;;;;;12.00;12.00;;;;;21.94;55.03;98570.31;4881839;28;104100;-84
2021/09/13 09:09:05;;;;;;;;;13.00;12.67;;;;;21.95;55.29;98569.22;4894336;28;102518;-84
2021/09/13 09:11:53;;;;;;;;;14.67;13.67;;;;;21.97;54.75;98568.97;4883567;28;102767;-84
2021/09/13 09:14:43;;;;;;;;;13.67;11.33;;;;;21.99;54.77;98575.00;4897235;28;102583;-83
2021/09/13 09:17:23;;;;;;;;;10.67;9.67;;;;;21.97;54.58;98572.53;4889622;28;108750;-83
2021/09/13 09:20:04;;;;;;;;;13.67;11.00;;;;;21.99;54.35;98577.75;4881844;28;103085;-84
2021/09/13 09:22:32;;;;;;;;;14.00;12.33;;;;;21.99;54.52;98578.59;4896389;28;102837;-83
2021/09/13 09:25:01;;;;;;;;;10.33;10.33;;;;;21.97;54.55;98575.31;4902956;28;102964;-84
2021/09/13 09:27:28;;;;;;;;;11.33;10.00;;;;;21.98;54.38;98573.34;4877513;28;104667;-83
2021/09/13 09:29:56;;;;;;;;;13.00;11.33;;;;;22.00;54.42;98582.16;4887839;28;102419;-83
2021/09/13 09:32:27;;;;;;;;;10.00;9.00;;;;;22.00;54.26;98584.91;4900181;28;102255;-84
2021/09/13 09:34:54;;;;;;;;;11.33;11.00;;;;;22.00;54.73;98583.00;4889776;28;102155;-83
2021/09/13 09:37:24;;;;;;;;;12.00;11.00;;;;;22.00;54.81;98585.75;4884203;28;104248;-84
2021/09/13 09:39:56;;;;;;;;;12.00;9.67;;;;;22.02;54.62;98582.72;4892587;28;102455;-84
2021/09/13 09:42:41;;;;;;;;;9.67;9.67;;;;;22.02;54.75;98583.53;4884752;28;103672;-84
2021/09/13 09:45:18;;;;;;;;;9.00;8.00;;;;;22.03;54.85;98584.34;4891320;28;102720;-84
2021/09/13 09:47:45;;;;;;;;;10.67;10.67;;;;;22.05;54.79;98593.19;4900146;28;103878;-83
2021/09/13 09:50:12;;;;;;;;;9.67;9.67;;;;;22.05;54.77;98588.50;4871587;28;102684;-83
2021/09/13 09:52:40;;;;;;;;;10.33;10.00;;;;;22.05;54.63;98598.69;4895480;28;103860;-84
2021/09/13 09:55:11;;;;;;;;;9.00;8.67;;;;;22.07;54.69;98589.03;4898949;28;102263;-84
2021/09/13 09:57:38;;;;;;;;;11.33;11.00;;;;;22.07;54.33;98580.78;4881299;28;104102;-84
2021/09/13 10:00:28;;;;;;;;;10.00;10.00;;;;;22.07;54.74;98594.56;4888085;28;102178;-84
2021/09/13 10:02:55;;;;;;;;;11.00;10.00;;;;;22.06;54.79;98584.66;4883417;28;102192;-84
2021/09/13 10:05:27;;;;;;;;;10.33;10.00;;;;;22.08;54.64;98584.38;4897789;28;102740;-84
2021/09/13 10:07:55;;;;;;;;;9.33;8.67;;;;;22.08;54.68;98576.09;4887931;28;104078;-83
2021/09/13 10:10:24;;;;;;;;;11.67;10.67;;;;;22.10;54.53;98568.41;4886725;28;102448;-84
2021/09/13 10:12:51;;;;;;;;;9.00;8.67;;;;;22.10;54.54;98569.22;4884083;28;102558;-84
2021/09/13 10:15:18;;;;;;;;;10.00;9.00;;;;;22.12;54.53;98567.00;4888033;28;103988;-84
2021/09/13 10:17:45;;;;;;;;;10.00;9.00;;;;;22.13;54.56;98568.66;4885851;28;104113;-84
2021/09/13 10:20:13;;;;;;;;;10.00;9.00;;;;;22.15;54.85;98565.66;4892279;28;102715;-84
2021/09/13 10:22:42;;;;;;;;;9.00;9.00;;;;;22.17;54.86;98568.94;4885184;28;102604;-84
2021/09/13 10:25:09;;;;;;;;;7.00;7.00;;;;;22.18;54.90;98559.56;4894481;28;102757;-84
2021/09/13 10:27:37;;;;;;;;;12.33;10.67;;;;;22.19;54.80;98561.25;4890194;28;104167;-84
2021/09/13 10:30:16;;;;;;;;;8.33;8.33;;;;;22.20;54.29;98562.88;4902963;28;111551;-84
2021/09/13 10:32:44;;;;;;;;;12.67;10.00;;;;;22.21;54.44;98564.53;4889347;28;103023;-84
2021/09/13 10:35:12;;;;;;;;;10.00;10.00;;;;;22.22;54.33;98567.00;4887962;28;102756;-83
2021/09/13 10:37:39;;;;;;;;;13.33;10.67;;;;;22.22;54.58;98561.50;4891944;28;104075;-83
2021/09/13 10:40:15;;;;;;;;;8.00;8.00;;;;;22.23;54.66;98565.91;4905755;28;103369;-84
2021/09/13 10:42:50;;;;;;;;;9.67;9.67;;;;;22.23;54.58;98565.09;4878576;28;102608;-84
2021/09/13 10:45:20;;;;;;;;;11.33;10.67;;;;;22.22;54.70;98557.91;4885582;28;102937;-84
2021/09/13 10:48:09;;;;;;;;;10.00;10.00;;;;;22.24;54.51;98569.50;4903406;28;103659;-84
2021/09/13 10:50:36;;;;;;;;;9.67;8.00;;;;;22.23;54.42;98557.66;4883793;28;102484;-84
2021/09/13 10:53:24;;;;;;;;;9.33;9.00;;;;;22.25;54.83;98573.88;4892987;28;102615;-84
2021/09/13 10:55:59;;;;;;;;;9.67;9.67;;;;;22.26;54.67;98564.53;4899139;28;102710;-84
2021/09/13 10:58:37;;;;;;;;;11.00;10.00;;;;;22.27;54.90;98565.34;4885021;28;104140;-84
2021/09/13 11:01:06;;;;;;;;;10.67;10.00;;;;;22.29;54.81;98560.41;4879518;28;102178;-84
2021/09/13 11:03:36;;;;;;;;;10.00;10.00;;;;;22.31;54.54;98553.50;4899605;28;102496;-84
2021/09/13 11:06:07;;;;;;;;;9.00;9.00;;;;;22.33;54.59;98545.78;4901304;28;102146;-84
2021/09/13 11:08:44;;;;;;;;;11.00;10.33;;;;;22.34;54.46;98544.66;4880637;28;109231;-84
2021/09/13 11:11:12;;;;;;;;;11.00;9.33;;;;;22.35;54.58;98538.06;4866716;28;103608;-84
2021/09/13 11:13:39;;;;;;;;;10.00;9.00;;;;;22.37;54.30;98540.53;4889779;28;102466;-83
2021/09/13 11:16:07;;;;;;;;;9.67;8.67;;;;;22.37;54.62;98543.31;4894246;28;105383;-83
2021/09/13 11:18:34;;;;;;;;;9.33;8.67;;;;;22.37;54.50;98551.56;4897528;28;104190;-84
2021/09/13 11:21:21;;;;;;;;;12.33;10.33;;;;;22.37;54.53;98552.41;4902123;28;102465;-84
2021/09/13 11:23:56;;;;;;;;;10.33;9.67;;;;;22.37;54.76;98555.16;4894359;28;102601;-84